Coronel Dorrego, Argentina
Current Conditions -  °F | °C
As of 1:00 PM on Friday 24 Oct 2014 (Local Time) from SAZM Reporting Station
Scattered Clouds Scattered Clouds  
Wind Chill: 66°   Ceiling: Unl
Heat Index: 66°   Visibility: 6mi
Dew Point: 57°   Wind: 14mph
Humidity: 73%   Direction: 90°E
Pressure: 30.06"   Gusts: NA
Location:  38.75°S, 61.17°W
Report Text: SAZM 241600Z 09012KT 9999 SCT020 SCT20019/14 Q1018
Loading
Personal Weather Stations






























Interactive Weather Map
Tropical Storm Tracking
New forecast layout! Learn more

10-Day Weather Forecast

Advertisements
Track Severe Weather on mobile